sensor_id;sensor_type;location;lat;lon;timestamp;P1;durP1;ratioP1;P2;durP2;ratioP2
317;SDS011;146;53.448;10.228;2023-04-03T00:01:32;1.50;;;1.40;;
317;SDS011;146;53.448;10.228;2023-04-03T00:04:06;3.67;;;2.33;;
317;SDS011;146;53.448;10.228;2023-04-03T00:06:35;6.20;;;1.70;;
317;SDS011;146;53.448;10.228;2023-04-03T00:09:03;1.40;;;1.30;;
317;SDS011;146;53.448;10.228;2023-04-03T00:11:30;3.03;;;1.77;;
317;SDS011;146;53.448;10.228;2023-04-03T00:13:57;6.37;;;1.60;;
317;SDS011;146;53.448;10.228;2023-04-03T00:16:30;2.53;;;1.30;;
317;SDS011;146;53.448;10.228;2023-04-03T00:19:06;6.20;;;1.67;;
317;SDS011;146;53.448;10.228;2023-04-03T00:21:32;2.80;;;1.60;;
317;SDS011;146;53.448;10.228;2023-04-03T00:24:11;3.93;;;1.60;;
317;SDS011;146;53.448;10.228;2023-04-03T00:26:38;3.50;;;1.63;;
317;SDS011;146;53.448;10.228;2023-04-03T00:29:05;3.57;;;1.80;;
317;SDS011;146;53.448;10.228;2023-04-03T00:34:14;2.13;;;1.37;;
317;SDS011;146;53.448;10.228;2023-04-03T00:36:41;3.20;;;1.80;;
317;SDS011;146;53.448;10.228;2023-04-03T00:39:09;3.20;;;1.90;;
317;SDS011;146;53.448;10.228;2023-04-03T00:41:38;1.93;;;1.83;;
317;SDS011;146;53.448;10.228;2023-04-03T00:44:19;1.57;;;1.43;;
317;SDS011;146;53.448;10.228;2023-04-03T00:46:46;1.70;;;1.50;;
317;SDS011;146;53.448;10.228;2023-04-03T00:49:13;2.00;;;1.37;;
317;SDS011;146;53.448;10.228;2023-04-03T00:51:40;4.97;;;1.77;;
317;SDS011;146;53.448;10.228;2023-04-03T00:54:11;4.03;;;1.97;;
317;SDS011;146;53.448;10.228;2023-04-03T00:56:38;3.73;;;1.80;;
317;SDS011;146;53.448;10.228;2023-04-03T00:59:07;3.97;;;1.50;;
317;SDS011;146;53.448;10.228;2023-04-03T01:01:37;2.67;;;1.87;;
317;SDS011;146;53.448;10.228;2023-04-03T01:04:24;1.83;;;1.73;;
317;SDS011;146;53.448;10.228;2023-04-03T01:06:56;4.93;;;2.27;;
317;SDS011;146;53.448;10.228;2023-04-03T01:09:31;2.80;;;1.73;;
317;SDS011;146;53.448;10.228;2023-04-03T01:12:14;2.90;;;1.90;;
317;SDS011;146;53.448;10.228;2023-04-03T01:14:48;2.03;;;1.83;;
317;SDS011;146;53.448;10.228;2023-04-03T01:17:30;2.97;;;1.70;;
317;SDS011;146;53.448;10.228;2023-04-03T01:20:14;2.20;;;1.60;;
317;SDS011;146;53.448;10.228;2023-04-03T01:23:11;2.60;;;1.50;;
317;SDS011;146;53.448;10.228;2023-04-03T01:25:54;3.73;;;2.10;;
317;SDS011;146;53.448;10.228;2023-04-03T01:28:22;3.43;;;2.10;;
317;SDS011;146;53.448;10.228;2023-04-03T01:30:55;2.40;;;1.87;;
317;SDS011;146;53.448;10.228;2023-04-03T01:33:33;3.93;;;1.97;;
317;SDS011;146;53.448;10.228;2023-04-03T01:36:01;2.20;;;1.67;;
317;SDS011;146;53.448;10.228;2023-04-03T01:38:28;2.73;;;2.50;;
317;SDS011;146;53.448;10.228;2023-04-03T01:41:01;3.17;;;2.30;;
317;SDS011;146;53.448;10.228;2023-04-03T01:43:27;3.50;;;2.53;;
317;SDS011;146;53.448;10.228;2023-04-03T01:45:54;4.10;;;1.90;;
317;SDS011;146;53.448;10.228;2023-04-03T01:48:26;4.57;;;1.70;;
317;SDS011;146;53.448;10.228;2023-04-03T01:50:54;2.10;;;1.90;;
317;SDS011;146;53.448;10.228;2023-04-03T01:53:21;2.60;;;1.50;;
317;SDS011;146;53.448;10.228;2023-04-03T01:55:51;2.50;;;2.07;;
317;SDS011;146;53.448;10.228;2023-04-03T01:58:23;2.70;;;1.80;;
317;SDS011;146;53.448;10.228;2023-04-03T02:00:53;3.33;;;2.20;;
317;SDS011;146;53.448;10.228;2023-04-03T02:03:20;2.70;;;2.33;;
317;SDS011;146;53.448;10.228;2023-04-03T02:05:47;5.60;;;2.63;;
317;SDS011;146;53.448;10.228;2023-04-03T02:08:16;3.30;;;1.90;;
317;SDS011;146;53.448;10.228;2023-04-03T02:10:50;3.67;;;1.60;;
317;SDS011;146;53.448;10.228;2023-04-03T02:13:17;3.03;;;1.57;;
317;SDS011;146;53.448;10.228;2023-04-03T02:15:44;4.50;;;1.80;;
317;SDS011;146;53.448;10.228;2023-04-03T02:18:14;4.50;;;2.10;;
317;SDS011;146;53.448;10.228;2023-04-03T02:20:41;2.40;;;1.93;;
317;SDS011;146;53.448;10.228;2023-04-03T02:23:08;2.10;;;1.30;;
317;SDS011;146;53.448;10.228;2023-04-03T02:25:39;2.10;;;1.70;;
317;SDS011;146;53.448;10.228;2023-04-03T02:28:09;4.82;;;2.10;;
317;SDS011;146;53.448;10.228;2023-04-03T02:30:41;4.23;;;2.90;;
317;SDS011;146;53.448;10.228;2023-04-03T02:33:08;5.93;;;1.93;;
317;SDS011;146;53.448;10.228;2023-04-03T02:35:40;3.60;;;1.93;;
317;SDS011;146;53.448;10.228;2023-04-03T02:38:06;5.50;;;2.00;;
317;SDS011;146;53.448;10.228;2023-04-03T02:40:33;3.63;;;1.93;;
317;SDS011;146;53.448;10.228;2023-04-03T02:43:10;3.50;;;2.00;;
317;SDS011;146;53.448;10.228;2023-04-03T02:45:37;3.07;;;2.10;;
317;SDS011;146;53.448;10.228;2023-04-03T02:48:07;5.47;;;1.60;;
317;SDS011;146;53.448;10.228;2023-04-03T02:50:39;1.83;;;1.53;;
317;SDS011;146;53.448;10.228;2023-04-03T02:53:07;2.73;;;1.90;;
317;SDS011;146;53.448;10.228;2023-04-03T02:55:36;5.00;;;1.90;;
317;SDS011;146;53.448;10.228;2023-04-03T02:58:06;2.10;;;1.63;;
317;SDS011;146;53.448;10.228;2023-04-03T03:00:34;2.10;;;1.47;;
317;SDS011;146;53.448;10.228;2023-04-03T03:03:02;1.87;;;1.50;;
317;SDS011;146;53.448;10.228;2023-04-03T03:05:29;2.87;;;1.53;;
317;SDS011;146;53.448;10.228;2023-04-03T03:07:56;3.73;;;1.37;;
317;SDS011;146;53.448;10.228;2023-04-03T03:10:25;2.90;;;1.63;;
317;SDS011;146;53.448;10.228;2023-04-03T03:12:54;2.53;;;1.87;;
317;SDS011;146;53.448;10.228;2023-04-03T03:18:19;4.03;;;1.80;;
317;SDS011;146;53.448;10.228;2023-04-03T03:20:46;1.33;;;1.23;;
317;SDS011;146;53.448;10.228;2023-04-03T03:23:15;2.03;;;1.30;;
317;SDS011;146;53.448;10.228;2023-04-03T03:25:42;2.47;;;1.40;;
317;SDS011;146;53.448;10.228;2023-04-03T03:28:12;1.60;;;1.30;;
317;SDS011;146;53.448;10.228;2023-04-03T03:30:39;2.30;;;1.45;;
317;SDS011;146;53.448;10.228;2023-04-03T03:33:07;5.25;;;2.08;;
317;SDS011;146;53.448;10.228;2023-04-03T03:35:34;4.03;;;1.77;;
317;SDS011;146;53.448;10.228;2023-04-03T03:38:01;5.63;;;1.27;;
317;SDS011;146;53.448;10.228;2023-04-03T03:40:34;3.55;;;1.75;;
317;SDS011;146;53.448;10.228;2023-04-03T03:43:03;2.73;;;1.90;;
317;SDS011;146;53.448;10.228;2023-04-03T03:45:33;4.03;;;1.60;;
317;SDS011;146;53.448;10.228;2023-04-03T03:48:14;3.50;;;2.00;;
317;SDS011;146;53.448;10.228;2023-04-03T03:50:40;2.80;;;2.08;;
317;SDS011;146;53.448;10.228;2023-04-03T03:53:13;5.75;;;2.00;;
317;SDS011;146;53.448;10.228;2023-04-03T03:55:46;1.40;;;1.10;;
317;SDS011;146;53.448;10.228;2023-04-03T03:58:24;2.30;;;1.30;;
317;SDS011;146;53.448;10.228;2023-04-03T04:00:54;1.40;;;1.00;;
317;SDS011;146;53.448;10.228;2023-04-03T04:03:25;2.33;;;1.30;;
317;SDS011;146;53.448;10.228;2023-04-03T04:05:54;1.60;;;1.50;;
317;SDS011;146;53.448;10.228;2023-04-03T04:08:24;2.83;;;1.47;;
317;SDS011;146;53.448;10.228;2023-04-03T04:10:51;2.97;;;1.80;;
317;SDS011;146;53.448;10.228;2023-04-03T04:13:30;5.93;;;1.57;;
317;SDS011;146;53.448;10.228;2023-04-03T04:15:59;2.95;;;0.95;;
317;SDS011;146;53.448;10.228;2023-04-03T04:18:36;3.83;;;1.40;;
317;SDS011;146;53.448;10.228;2023-04-03T04:21:06;2.80;;;1.70;;
317;SDS011;146;53.448;10.228;2023-04-03T04:23:32;2.85;;;1.60;;
317;SDS011;146;53.448;10.228;2023-04-03T04:25:59;1.63;;;1.50;;
317;SDS011;146;53.448;10.228;2023-04-03T04:28:26;2.90;;;1.50;;
317;SDS011;146;53.448;10.228;2023-04-03T04:30:53;2.63;;;1.30;;
317;SDS011;146;53.448;10.228;2023-04-03T04:33:20;3.70;;;1.48;;
317;SDS011;146;53.448;10.228;2023-04-03T04:35:57;1.85;;;1.20;;
317;SDS011;146;53.448;10.228;2023-04-03T04:38:26;3.25;;;1.15;;
317;SDS011;146;53.448;10.228;2023-04-03T04:40:53;1.73;;;1.40;;
317;SDS011;146;53.448;10.228;2023-04-03T04:43:20;1.50;;;1.23;;
317;SDS011;146;53.448;10.228;2023-04-03T04:45:47;1.53;;;1.40;;
317;SDS011;146;53.448;10.228;2023-04-03T04:48:14;3.30;;;1.30;;
317;SDS011;146;53.448;10.228;2023-04-03T04:50:48;2.67;;;1.20;;
317;SDS011;146;53.448;10.228;2023-04-03T04:53:16;3.60;;;1.67;;
317;SDS011;146;53.448;10.228;2023-04-03T04:55:46;2.50;;;1.42;;
317;SDS011;146;53.448;10.228;2023-04-03T04:58:15;3.58;;;1.40;;
317;SDS011;146;53.448;10.228;2023-04-03T05:00:44;3.40;;;1.30;;
317;SDS011;146;53.448;10.228;2023-04-03T05:03:14;2.95;;;1.65;;
317;SDS011;146;53.448;10.228;2023-04-03T05:05:41;2.65;;;1.60;;
317;SDS011;146;53.448;10.228;2023-04-03T05:08:10;2.47;;;2.28;;
317;SDS011;146;53.448;10.228;2023-04-03T05:10:41;4.97;;;1.75;;
317;SDS011;146;53.448;10.228;2023-04-03T05:13:08;4.85;;;1.92;;
317;SDS011;146;53.448;10.228;2023-04-03T05:15:35;3.08;;;2.30;;
317;SDS011;146;53.448;10.228;2023-04-03T05:18:02;2.65;;;1.60;;
317;SDS011;146;53.448;10.228;2023-04-03T05:20:29;1.83;;;1.73;;
317;SDS011;146;53.448;10.228;2023-04-03T05:22:57;2.10;;;1.60;;
317;SDS011;146;53.448;10.228;2023-04-03T05:25:24;1.40;;;1.00;;
317;SDS011;146;53.448;10.228;2023-04-03T05:27:52;3.37;;;1.50;;
317;SDS011;146;53.448;10.228;2023-04-03T05:30:19;2.00;;;1.50;;
317;SDS011;146;53.448;10.228;2023-04-03T05:32:48;1.75;;;1.42;;
317;SDS011;146;53.448;10.228;2023-04-03T05:35:15;3.43;;;1.70;;
317;SDS011;146;53.448;10.228;2023-04-03T05:37:42;2.35;;;1.75;;
317;SDS011;146;53.448;10.228;2023-04-03T05:40:09;2.77;;;1.53;;
317;SDS011;146;53.448;10.228;2023-04-03T05:42:42;1.40;;;1.20;;
317;SDS011;146;53.448;10.228;2023-04-03T05:45:10;3.20;;;1.53;;
317;SDS011;146;53.448;10.228;2023-04-03T05:47:37;5.38;;;1.95;;
317;SDS011;146;53.448;10.228;2023-04-03T05:50:04;2.57;;;1.80;;
317;SDS011;146;53.448;10.228;2023-04-03T05:52:33;1.57;;;1.47;;
317;SDS011;146;53.448;10.228;2023-04-03T05:55:03;3.87;;;1.60;;
317;SDS011;146;53.448;10.228;2023-04-03T05:58:02;3.03;;;2.00;;
317;SDS011;146;53.448;10.228;2023-04-03T06:00:36;1.97;;;1.87;;
317;SDS011;146;53.448;10.228;2023-04-03T06:03:02;3.50;;;1.80;;
317;SDS011;146;53.448;10.228;2023-04-03T06:05:35;3.37;;;1.67;;
317;SDS011;146;53.448;10.228;2023-04-03T06:08:02;1.50;;;1.40;;
317;SDS011;146;53.448;10.228;2023-04-03T06:10:29;2.30;;;1.40;;
317;SDS011;146;53.448;10.228;2023-04-03T06:12:56;3.60;;;1.60;;
317;SDS011;146;53.448;10.228;2023-04-03T06:15:23;3.23;;;2.00;;
317;SDS011;146;53.448;10.228;2023-04-03T06:17:54;1.40;;;1.30;;
317;SDS011;146;53.448;10.228;2023-04-03T06:20:21;3.47;;;2.10;;
317;SDS011;146;53.448;10.228;2023-04-03T06:22:48;2.10;;;1.40;;
317;SDS011;146;53.448;10.228;2023-04-03T06:25:36;3.03;;;1.63;;
317;SDS011;146;53.448;10.228;2023-04-03T06:28:03;4.40;;;1.50;;
317;SDS011;146;53.448;10.228;2023-04-03T06:30:30;6.80;;;1.63;;
317;SDS011;146;53.448;10.228;2023-04-03T06:32:59;1.80;;;1.20;;
317;SDS011;146;53.448;10.228;2023-04-03T06:35:25;2.93;;;1.17;;
317;SDS011;146;53.448;10.228;2023-04-03T06:37:53;2.93;;;1.30;;
317;SDS011;146;53.448;10.228;2023-04-03T06:40:21;3.17;;;2.03;;
317;SDS011;146;53.448;10.228;2023-04-03T06:42:50;2.60;;;1.13;;
317;SDS011;146;53.448;10.228;2023-04-03T06:45:24;2.63;;;1.20;;
317;SDS011;146;53.448;10.228;2023-04-03T06:47:51;1.20;;;0.90;;
317;SDS011;146;53.448;10.228;2023-04-03T06:50:19;2.13;;;1.30;;
317;SDS011;146;53.448;10.228;2023-04-03T06:52:46;2.27;;;1.20;;
317;SDS011;146;53.448;10.228;2023-04-03T06:55:13;2.93;;;1.47;;
317;SDS011;146;53.448;10.228;2023-04-03T06:57:39;1.80;;;1.10;;
317;SDS011;146;53.448;10.228;2023-04-03T07:00:07;2.23;;;1.10;;
317;SDS011;146;53.448;10.228;2023-04-03T07:02:37;2.10;;;1.20;;
317;SDS011;146;53.448;10.228;2023-04-03T07:05:04;1.50;;;0.93;;
317;SDS011;146;53.448;10.228;2023-04-03T07:07:36;1.83;;;0.83;;
317;SDS011;146;53.448;10.228;2023-04-03T07:10:04;0.90;;;0.77;;
317;SDS011;146;53.448;10.228;2023-04-03T07:12:32;3.13;;;0.83;;
317;SDS011;146;53.448;10.228;2023-04-03T07:14:59;1.50;;;0.83;;
317;SDS011;146;53.448;10.228;2023-04-03T07:17:26;2.03;;;0.90;;
317;SDS011;146;53.448;10.228;2023-04-03T07:19:53;0.90;;;0.60;;
317;SDS011;146;53.448;10.228;2023-04-03T07:22:20;2.50;;;0.90;;
317;SDS011;146;53.448;10.228;2023-04-03T07:24:48;4.70;;;1.13;;
317;SDS011;146;53.448;10.228;2023-04-03T07:27:14;1.20;;;0.80;;
317;SDS011;146;53.448;10.228;2023-04-03T07:29:46;2.67;;;1.00;;
317;SDS011;146;53.448;10.228;2023-04-03T07:32:13;2.27;;;1.30;;
317;SDS011;146;53.448;10.228;2023-04-03T07:34:58;1.30;;;0.80;;
317;SDS011;146;53.448;10.228;2023-04-03T07:37:25;1.00;;;0.90;;
317;SDS011;146;53.448;10.228;2023-04-03T07:39:56;5.53;;;1.00;;
317;SDS011;146;53.448;10.228;2023-04-03T07:42:24;2.20;;;0.90;;
317;SDS011;146;53.448;10.228;2023-04-03T07:44:51;0.93;;;0.70;;
317;SDS011;146;53.448;10.228;2023-04-03T07:47:21;3.63;;;0.73;;
317;SDS011;146;53.448;10.228;2023-04-03T07:49:57;1.73;;;0.97;;
317;SDS011;146;53.448;10.228;2023-04-03T07:52:24;3.47;;;0.70;;
317;SDS011;146;53.448;10.228;2023-04-03T07:54:58;1.83;;;1.27;;
317;SDS011;146;53.448;10.228;2023-04-03T07:57:25;1.97;;;0.83;;
317;SDS011;146;53.448;10.228;2023-04-03T07:59:52;3.20;;;0.90;;
317;SDS011;146;53.448;10.228;2023-04-03T08:02:25;0.77;;;0.67;;
317;SDS011;146;53.448;10.228;2023-04-03T08:04:56;3.50;;;1.00;;
317;SDS011;146;53.448;10.228;2023-04-03T08:07:26;3.27;;;0.80;;
317;SDS011;146;53.448;10.228;2023-04-03T08:09:56;1.30;;;1.20;;
317;SDS011;146;53.448;10.228;2023-04-03T08:12:32;11.67;;;1.47;;
317;SDS011;146;53.448;10.228;2023-04-03T08:15:07;2.40;;;0.90;;
317;SDS011;146;53.448;10.228;2023-04-03T08:17:34;1.00;;;0.73;;
317;SDS011;146;53.448;10.228;2023-04-03T08:20:01;3.40;;;1.30;;
317;SDS011;146;53.448;10.228;2023-04-03T08:22:34;3.93;;;1.40;;
317;SDS011;146;53.448;10.228;2023-04-03T08:25:01;1.13;;;1.03;;
317;SDS011;146;53.448;10.228;2023-04-03T08:30:20;1.23;;;1.13;;
317;SDS011;146;53.448;10.228;2023-04-03T08:32:47;0.70;;;0.60;;
317;SDS011;146;53.448;10.228;2023-04-03T08:35:14;1.60;;;0.90;;
317;SDS011;146;53.448;10.228;2023-04-03T08:37:41;2.00;;;0.90;;
317;SDS011;146;53.448;10.228;2023-04-03T08:40:12;2.73;;;1.10;;
317;SDS011;146;53.448;10.228;2023-04-03T08:42:44;3.43;;;1.07;;
317;SDS011;146;53.448;10.228;2023-04-03T08:45:34;1.90;;;0.90;;
317;SDS011;146;53.448;10.228;2023-04-03T08:48:11;0.70;;;0.70;;
317;SDS011;146;53.448;10.228;2023-04-03T08:50:41;0.80;;;0.80;;
317;SDS011;146;53.448;10.228;2023-04-03T08:53:12;2.33;;;0.90;;
317;SDS011;146;53.448;10.228;2023-04-03T08:55:42;1.90;;;1.10;;
317;SDS011;146;53.448;10.228;2023-04-03T08:58:16;0.70;;;0.70;;
317;SDS011;146;53.448;10.228;2023-04-03T09:01:00;1.33;;;0.90;;
317;SDS011;146;53.448;10.228;2023-04-03T09:03:39;0.90;;;0.60;;
317;SDS011;146;53.448;10.228;2023-04-03T09:06:07;3.57;;;1.07;;
317;SDS011;146;53.448;10.228;2023-04-03T09:08:43;1.07;;;0.97;;
317;SDS011;146;53.448;10.228;2023-04-03T09:11:16;0.70;;;0.70;;
317;SDS011;146;53.448;10.228;2023-04-03T09:13:59;1.77;;;0.70;;
317;SDS011;146;53.448;10.228;2023-04-03T09:16:39;0.70;;;0.60;;
317;SDS011;146;53.448;10.228;2023-04-03T09:19:19;0.97;;;0.87;;
317;SDS011;146;53.448;10.228;2023-04-03T09:22:01;0.80;;;0.80;;
317;SDS011;146;53.448;10.228;2023-04-03T09:24:42;0.90;;;0.60;;
317;SDS011;146;53.448;10.228;2023-04-03T09:27:11;1.47;;;0.60;;
317;SDS011;146;53.448;10.228;2023-04-03T09:29:39;0.70;;;0.60;;
317;SDS011;146;53.448;10.228;2023-04-03T09:32:18;2.03;;;1.07;;
317;SDS011;146;53.448;10.228;2023-04-03T09:34:56;1.47;;;0.87;;
317;SDS011;146;53.448;10.228;2023-04-03T09:37:46;2.40;;;1.20;;
317;SDS011;146;53.448;10.228;2023-04-03T09:40:30;1.30;;;0.83;;
317;SDS011;146;53.448;10.228;2023-04-03T09:43:25;4.37;;;0.90;;
317;SDS011;146;53.448;10.228;2023-04-03T09:45:56;1.20;;;0.60;;
317;SDS011;146;53.448;10.228;2023-04-03T09:48:41;1.77;;;0.90;;
317;SDS011;146;53.448;10.228;2023-04-03T09:51:25;0.73;;;0.60;;
317;SDS011;146;53.448;10.228;2023-04-03T09:53:53;2.40;;;0.70;;
317;SDS011;146;53.448;10.228;2023-04-03T09:56:40;1.13;;;0.67;;
317;SDS011;146;53.448;10.228;2023-04-03T09:59:08;0.60;;;0.57;;
317;SDS011;146;53.448;10.228;2023-04-03T10:01:43;1.77;;;1.33;;
317;SDS011;146;53.448;10.228;2023-04-03T10:04:37;1.33;;;0.63;;
317;SDS011;146;53.448;10.228;2023-04-03T10:09:55;0.73;;;0.70;;
317;SDS011;146;53.448;10.228;2023-04-03T10:12:30;2.23;;;1.07;;
317;SDS011;146;53.448;10.228;2023-04-03T10:15:00;4.23;;;1.20;;
317;SDS011;146;53.448;10.228;2023-04-03T10:17:42;1.23;;;0.83;;
317;SDS011;146;53.448;10.228;2023-04-03T10:20:26;1.33;;;0.73;;
317;SDS011;146;53.448;10.228;2023-04-03T10:23:00;1.97;;;1.17;;
317;SDS011;146;53.448;10.228;2023-04-03T10:25:40;1.60;;;1.13;;
317;SDS011;146;53.448;10.228;2023-04-03T10:28:15;1.83;;;1.37;;
317;SDS011;146;53.448;10.228;2023-04-03T10:30:54;2.03;;;1.53;;
317;SDS011;146;53.448;10.228;2023-04-03T10:33:37;1.53;;;0.93;;
317;SDS011;146;53.448;10.228;2023-04-03T10:36:24;0.90;;;0.67;;
317;SDS011;146;53.448;10.228;2023-04-03T10:39:08;0.93;;;0.83;;
317;SDS011;146;53.448;10.228;2023-04-03T10:41:55;3.63;;;0.93;;
317;SDS011;146;53.448;10.228;2023-04-03T10:44:34;2.00;;;1.00;;
317;SDS011;146;53.448;10.228;2023-04-03T10:47:08;1.10;;;0.90;;
317;SDS011;146;53.448;10.228;2023-04-03T10:49:46;0.70;;;0.70;;
317;SDS011;146;53.448;10.228;2023-04-03T10:52:23;1.10;;;0.77;;
317;SDS011;146;53.448;10.228;2023-04-03T10:54:57;0.80;;;0.80;;
317;SDS011;146;53.448;10.228;2023-04-03T10:57:29;0.63;;;0.63;;
317;SDS011;146;53.448;10.228;2023-04-03T11:00:01;1.57;;;1.27;;
317;SDS011;146;53.448;10.228;2023-04-03T11:02:30;1.10;;;0.80;;
317;SDS011;146;53.448;10.228;2023-04-03T11:05:03;1.33;;;0.97;;
317;SDS011;146;53.448;10.228;2023-04-03T11:07:36;3.03;;;1.13;;
317;SDS011;146;53.448;10.228;2023-04-03T11:10:09;4.97;;;1.53;;
317;SDS011;146;53.448;10.228;2023-04-03T11:12:42;3.13;;;1.30;;
317;SDS011;146;53.448;10.228;2023-04-03T11:15:12;1.00;;;0.90;;
317;SDS011;146;53.448;10.228;2023-04-03T11:17:43;1.60;;;1.03;;
317;SDS011;146;53.448;10.228;2023-04-03T11:20:17;0.90;;;0.90;;
317;SDS011;146;53.448;10.228;2023-04-03T11:22:57;1.47;;;1.00;;
317;SDS011;146;53.448;10.228;2023-04-03T11:25:31;1.10;;;0.70;;
317;SDS011;146;53.448;10.228;2023-04-03T11:28:02;0.93;;;0.63;;
317;SDS011;146;53.448;10.228;2023-04-03T11:30:32;1.37;;;0.83;;
317;SDS011;146;53.448;10.228;2023-04-03T11:33:28;3.57;;;0.70;;
317;SDS011;146;53.448;10.228;2023-04-03T11:36:03;1.53;;;0.90;;
317;SDS011;146;53.448;10.228;2023-04-03T11:38:36;1.23;;;0.80;;
317;SDS011;146;53.448;10.228;2023-04-03T11:41:08;1.23;;;0.80;;
317;SDS011;146;53.448;10.228;2023-04-03T11:43:48;1.03;;;0.70;;
317;SDS011;146;53.448;10.228;2023-04-03T11:46:23;1.30;;;0.73;;
317;SDS011;146;53.448;10.228;2023-04-03T11:55:44;1.10;;;0.80;;
317;SDS011;146;53.448;10.228;2023-04-03T11:58:27;1.10;;;1.00;;
317;SDS011;146;53.448;10.228;2023-04-03T12:00:56;1.03;;;0.93;;
317;SDS011;146;53.448;10.228;2023-04-03T12:09:56;1.57;;;0.83;;
317;SDS011;146;53.448;10.228;2023-04-03T12:12:37;2.90;;;1.23;;
317;SDS011;146;53.448;10.228;2023-04-03T12:15:19;2.03;;;1.00;;
317;SDS011;146;53.448;10.228;2023-04-03T12:21:07;1.17;;;0.77;;
317;SDS011;146;53.448;10.228;2023-04-03T12:26:26;1.73;;;0.70;;
317;SDS011;146;53.448;10.228;2023-04-03T12:28:57;2.43;;;1.10;;
317;SDS011;146;53.448;10.228;2023-04-03T12:31:32;0.70;;;0.60;;
317;SDS011;146;53.448;10.228;2023-04-03T12:34:15;1.37;;;1.13;;
317;SDS011;146;53.448;10.228;2023-04-03T12:36:57;1.30;;;0.83;;
317;SDS011;146;53.448;10.228;2023-04-03T12:39:47;3.00;;;1.27;;
317;SDS011;146;53.448;10.228;2023-04-03T12:42:29;1.60;;;0.80;;
317;SDS011;146;53.448;10.228;2023-04-03T12:45:22;1.33;;;1.07;;
317;SDS011;146;53.448;10.228;2023-04-03T12:47:53;2.17;;;0.80;;
317;SDS011;146;53.448;10.228;2023-04-03T12:50:25;1.23;;;0.73;;
317;SDS011;146;53.448;10.228;2023-04-03T12:52:57;2.50;;;0.90;;
317;SDS011;146;53.448;10.228;2023-04-03T12:55:27;1.87;;;1.20;;
317;SDS011;146;53.448;10.228;2023-04-03T12:57:59;1.10;;;0.90;;
317;SDS011;146;53.448;10.228;2023-04-03T13:00:41;1.53;;;0.90;;
317;SDS011;146;53.448;10.228;2023-04-03T13:03:21;3.20;;;1.10;;
317;SDS011;146;53.448;10.228;2023-04-03T13:05:51;1.37;;;0.90;;
317;SDS011;146;53.448;10.228;2023-04-03T13:08:28;2.37;;;0.80;;
317;SDS011;146;53.448;10.228;2023-04-03T13:10:58;2.63;;;1.03;;
317;SDS011;146;53.448;10.228;2023-04-03T13:13:30;0.70;;;0.60;;
317;SDS011;146;53.448;10.228;2023-04-03T13:16:09;1.57;;;0.70;;
317;SDS011;146;53.448;10.228;2023-04-03T13:18:38;1.00;;;0.80;;
317;SDS011;146;53.448;10.228;2023-04-03T13:21:11;1.33;;;0.77;;
317;SDS011;146;53.448;10.228;2023-04-03T13:23:44;1.73;;;0.67;;
317;SDS011;146;53.448;10.228;2023-04-03T13:26:16;2.50;;;0.83;;
317;SDS011;146;53.448;10.228;2023-04-03T13:28:45;1.37;;;0.70;;
317;SDS011;146;53.448;10.228;2023-04-03T13:31:18;2.30;;;1.20;;
317;SDS011;146;53.448;10.228;2023-04-03T13:33:58;2.17;;;0.90;;
317;SDS011;146;53.448;10.228;2023-04-03T13:36:31;5.90;;;1.20;;
317;SDS011;146;53.448;10.228;2023-04-03T13:39:01;1.67;;;0.70;;
317;SDS011;146;53.448;10.228;2023-04-03T13:41:32;1.00;;;0.90;;
317;SDS011;146;53.448;10.228;2023-04-03T13:44:24;2.40;;;0.80;;
317;SDS011;146;53.448;10.228;2023-04-03T13:46:58;1.20;;;0.70;;
317;SDS011;146;53.448;10.228;2023-04-03T13:49:30;1.57;;;0.90;;
317;SDS011;146;53.448;10.228;2023-04-03T13:52:01;2.57;;;0.80;;
317;SDS011;146;53.448;10.228;2023-04-03T13:54:45;0.80;;;0.73;;
317;SDS011;146;53.448;10.228;2023-04-03T13:57:13;1.37;;;0.70;;
317;SDS011;146;53.448;10.228;2023-04-03T13:59:43;2.20;;;0.80;;
317;SDS011;146;53.448;10.228;2023-04-03T14:02:13;0.73;;;0.60;;
317;SDS011;146;53.448;10.228;2023-04-03T14:04:47;2.60;;;0.97;;
317;SDS011;146;53.448;10.228;2023-04-03T14:07:21;1.23;;;1.10;;
317;SDS011;146;53.448;10.228;2023-04-03T14:09:49;0.83;;;0.83;;
317;SDS011;146;53.448;10.228;2023-04-03T14:12:17;1.00;;;0.80;;
317;SDS011;146;53.448;10.228;2023-04-03T14:14:49;1.20;;;1.10;;
317;SDS011;146;53.448;10.228;2023-04-03T14:17:16;1.37;;;1.00;;
317;SDS011;146;53.448;10.228;2023-04-03T14:19:46;0.87;;;0.80;;
317;SDS011;146;53.448;10.228;2023-04-03T14:22:14;1.10;;;0.80;;
317;SDS011;146;53.448;10.228;2023-04-03T14:24:43;1.57;;;1.00;;
317;SDS011;146;53.448;10.228;2023-04-03T14:27:13;1.37;;;0.90;;
317;SDS011;146;53.448;10.228;2023-04-03T14:29:42;1.47;;;0.90;;
317;SDS011;146;53.448;10.228;2023-04-03T14:32:12;1.47;;;1.00;;
317;SDS011;146;53.448;10.228;2023-04-03T14:34:39;1.10;;;0.80;;
317;SDS011;146;53.448;10.228;2023-04-03T14:37:09;0.73;;;0.70;;
317;SDS011;146;53.448;10.228;2023-04-03T14:39:36;4.23;;;1.10;;
317;SDS011;146;53.448;10.228;2023-04-03T14:42:03;0.83;;;0.80;;
317;SDS011;146;53.448;10.228;2023-04-03T14:44:30;0.80;;;0.80;;
317;SDS011;146;53.448;10.228;2023-04-03T14:46:57;1.70;;;1.03;;
317;SDS011;146;53.448;10.228;2023-04-03T14:49:26;1.27;;;0.90;;
317;SDS011;146;53.448;10.228;2023-04-03T14:51:54;1.33;;;0.93;;
317;SDS011;146;53.448;10.228;2023-04-03T14:54:22;5.87;;;1.50;;
317;SDS011;146;53.448;10.228;2023-04-03T14:56:50;3.60;;;1.50;;
317;SDS011;146;53.448;10.228;2023-04-03T14:59:17;2.97;;;1.03;;
317;SDS011;146;53.448;10.228;2023-04-03T15:01:46;1.80;;;1.10;;
317;SDS011;146;53.448;10.228;2023-04-03T15:04:13;1.03;;;0.93;;
317;SDS011;146;53.448;10.228;2023-04-03T15:06:47;1.40;;;0.90;;
317;SDS011;146;53.448;10.228;2023-04-03T15:09:18;0.80;;;0.80;;
317;SDS011;146;53.448;10.228;2023-04-03T15:11:46;1.77;;;0.97;;
317;SDS011;146;53.448;10.228;2023-04-03T15:14:13;2.10;;;1.00;;
317;SDS011;146;53.448;10.228;2023-04-03T15:16:40;1.67;;;0.73;;
317;SDS011;146;53.448;10.228;2023-04-03T15:19:07;1.83;;;1.00;;
317;SDS011;146;53.448;10.228;2023-04-03T15:21:33;1.60;;;1.47;;
317;SDS011;146;53.448;10.228;2023-04-03T15:24:06;1.13;;;1.03;;
317;SDS011;146;53.448;10.228;2023-04-03T15:26:43;1.33;;;0.90;;
317;SDS011;146;53.448;10.228;2023-04-03T15:29:13;1.43;;;1.07;;
317;SDS011;146;53.448;10.228;2023-04-03T15:31:40;1.13;;;1.03;;
317;SDS011;146;53.448;10.228;2023-04-03T15:34:16;3.30;;;1.20;;
317;SDS011;146;53.448;10.228;2023-04-03T15:36:43;1.27;;;0.93;;
317;SDS011;146;53.448;10.228;2023-04-03T15:39:17;4.33;;;1.33;;
317;SDS011;146;53.448;10.228;2023-04-03T15:41:45;0.83;;;0.83;;
317;SDS011;146;53.448;10.228;2023-04-03T15:44:12;1.10;;;0.70;;
317;SDS011;146;53.448;10.228;2023-04-03T15:46:42;1.63;;;1.00;;
317;SDS011;146;53.448;10.228;2023-04-03T15:49:09;1.43;;;1.10;;
317;SDS011;146;53.448;10.228;2023-04-03T15:51:36;1.37;;;0.70;;
317;SDS011;146;53.448;10.228;2023-04-03T15:54:03;1.90;;;1.03;;
317;SDS011;146;53.448;10.228;2023-04-03T15:56:32;1.37;;;0.70;;
317;SDS011;146;53.448;10.228;2023-04-03T15:59:02;0.67;;;0.67;;
317;SDS011;146;53.448;10.228;2023-04-03T16:01:29;1.10;;;0.60;;
317;SDS011;146;53.448;10.228;2023-04-03T16:04:00;1.20;;;1.03;;
317;SDS011;146;53.448;10.228;2023-04-03T16:06:30;1.03;;;0.90;;
317;SDS011;146;53.448;10.228;2023-04-03T16:08:58;5.00;;;1.10;;
317;SDS011;146;53.448;10.228;2023-04-03T16:11:29;2.00;;;1.17;;
317;SDS011;146;53.448;10.228;2023-04-03T16:13:57;0.90;;;0.67;;
317;SDS011;146;53.448;10.228;2023-04-03T16:16:24;1.20;;;1.10;;
317;SDS011;146;53.448;10.228;2023-04-03T16:18:55;1.57;;;1.00;;
317;SDS011;146;53.448;10.228;2023-04-03T16:21:24;1.23;;;0.80;;
317;SDS011;146;53.448;10.228;2023-04-03T16:23:52;1.33;;;1.10;;
317;SDS011;146;53.448;10.228;2023-04-03T16:26:22;1.33;;;0.87;;
317;SDS011;146;53.448;10.228;2023-04-03T16:28:50;1.40;;;1.30;;